Time;durP1;ratioP1;P1;durP2;ratioP2;P2;SDS_P1;SDS_P2;PMS_P1;PMS_P2;Temp;Humidity;BMP_temperature;BMP_pressure;BME280_temperature;BME280_humidity;BME280_pressure;Samples;Min_cycle;Max_cycle;Signal;HPM_P1;HPM_P2
2021/11/10 00:00:01;;;;;;;10.57;6.95;;;22.60;91.50;;;;;;5068654;28;20066;-64
2021/11/10 00:02:28;;;;;;;12.93;5.60;;;22.70;91.70;;;;;;5069470;28;20120;-56
2021/11/10 00:04:55;;;;;;;9.65;4.75;;;22.60;91.90;;;;;;5065781;28;20055;-61
2021/11/10 00:07:23;;;;;;;6.82;5.20;;;22.60;91.60;;;;;;5068177;28;20375;-62
2021/11/10 00:09:50;;;;;;;6.25;5.10;;;22.60;91.60;;;;;;5068614;28;20051;-63
2021/11/10 00:12:17;;;;;;;7.07;4.95;;;22.60;91.80;;;;;;5066238;28;20043;-55
2021/11/10 00:14:44;;;;;;;7.60;5.05;;;22.60;91.60;;;;;;5065163;28;20435;-59
2021/11/10 00:17:12;;;;;;;7.50;4.63;;;22.60;91.60;;;;;;5069086;28;20041;-63
2021/11/10 00:19:39;;;;;;;7.88;5.53;;;22.60;91.60;;;;;;5068989;28;20021;-60
2021/11/10 00:22:07;;;;;;;6.82;4.80;;;22.60;91.60;;;;;;5069503;28;20025;-59
2021/11/10 00:24:34;;;;;;;10.23;5.22;;;22.60;91.70;;;;;;5064669;28;20095;-57
2021/11/10 00:27:01;;;;;;;7.07;5.10;;;22.60;91.60;;;;;;5069007;28;20134;-58
2021/11/10 00:29:29;;;;;;;6.95;5.07;;;22.60;91.90;;;;;;5070034;28;20023;-56
2021/11/10 00:31:56;;;;;;;13.07;6.07;;;22.60;91.60;;;;;;5069874;28;20028;-58
2021/11/10 00:34:24;;;;;;;7.88;5.43;;;22.60;91.80;;;;;;5065394;28;20055;-62
2021/11/10 00:36:51;;;;;;;8.65;5.75;;;22.60;91.80;;;;;;5065631;28;20078;-63
2021/11/10 00:39:19;;;;;;;41.10;7.88;;;22.60;91.90;;;;;;5069474;28;20024;-58
2021/11/10 00:41:46;;;;;;;103.15;12.93;;;22.60;92.60;;;;;;5068538;28;20028;-60
2021/11/10 00:44:13;;;;;;;403.15;44.65;;;22.60;92.50;;;;;;5066060;28;20063;-57
2021/11/10 00:46:41;;;;;;;144.93;16.77;;;22.60;92.80;;;;;;5069723;28;20021;-62
2021/11/10 00:49:08;;;;;;;119.00;19.38;;;22.60;92.70;;;;;;5069233;28;20016;-58
2021/11/10 00:51:35;;;;;;;43.10;9.38;;;22.60;92.60;;;;;;5068515;28;20136;-56
2021/11/10 00:54:04;;;;;;;54.58;10.50;;;22.50;92.30;;;;;;5066907;28;20024;-58
2021/11/10 00:56:31;;;;;;;28.85;7.90;;;22.60;92.20;;;;;;5067398;28;20371;-61
2021/11/10 00:58:59;;;;;;;38.85;10.02;;;22.60;92.30;;;;;;5067532;28;20024;-59
2021/11/10 01:01:26;;;;;;;75.85;11.52;;;22.60;92.30;;;;;;5069421;28;20110;-60
2021/11/10 01:03:54;;;;;;;55.65;10.82;;;22.50;92.10;;;;;;5067080;28;20032;-63
2021/11/10 01:06:22;;;;;;;33.00;8.52;;;22.50;92.20;;;;;;5067758;28;20100;-56
2021/11/10 01:08:52;;;;;;;46.53;9.65;;;22.50;92.10;;;;;;5066392;28;20036;-62
2021/11/10 01:11:20;;;;;;;38.22;7.25;;;22.50;92.10;;;;;;5068681;28;20388;-61
2021/11/10 01:13:47;;;;;;;39.33;8.05;;;22.50;92.10;;;;;;5067259;28;20041;-61
2021/11/10 01:16:15;;;;;;;37.45;8.93;;;22.50;92.10;;;;;;5065410;28;20036;-63
2021/11/10 01:18:42;;;;;;;35.42;8.50;;;22.60;92.10;;;;;;5068728;28;20062;-60
2021/11/10 01:21:09;;;;;;;33.58;8.68;;;22.60;92.20;;;;;;5068356;28;20073;-64
2021/11/10 01:23:37;;;;;;;24.58;8.27;;;22.50;92.10;;;;;;5068272;28;20475;-61
2021/11/10 01:26:04;;;;;;;29.67;9.05;;;22.60;92.20;;;;;;5065685;28;20508;-59
2021/11/10 01:28:31;;;;;;;26.80;8.05;;;22.50;92.20;;;;;;5072414;28;20035;-60
2021/11/10 01:30:59;;;;;;;26.65;9.32;;;22.50;92.20;;;;;;5072491;28;20055;-63
2021/11/10 01:33:26;;;;;;;25.85;7.60;;;22.50;92.20;;;;;;5072011;28;20028;-63
2021/11/10 01:35:53;;;;;;;24.20;8.25;;;22.50;92.40;;;;;;5074734;28;20028;-64
2021/11/10 01:38:21;;;;;;;35.65;9.82;;;22.50;92.20;;;;;;5075123;28;20029;-64
2021/11/10 01:40:48;;;;;;;30.40;9.57;;;22.50;92.50;;;;;;5074549;28;20201;-64
2021/11/10 01:43:16;;;;;;;23.73;7.95;;;22.40;92.30;;;;;;5074793;28;20540;-62
2021/11/10 01:45:45;;;;;;;36.85;8.90;;;22.40;92.30;;;;;;5074281;28;20028;-63
2021/11/10 01:48:13;;;;;;;42.83;8.57;;;22.40;92.40;;;;;;5073935;28;20027;-63
2021/11/10 01:50:40;;;;;;;19.65;7.40;;;22.40;92.50;;;;;;5074341;28;20082;-65
2021/11/10 01:53:09;;;;;;;26.50;9.32;;;22.40;92.40;;;;;;5074869;28;20031;-63
2021/11/10 01:55:37;;;;;;;33.28;8.40;;;22.30;92.50;;;;;;5073883;28;20483;-64
2021/11/10 01:58:05;;;;;;;17.05;6.65;;;22.30;92.60;;;;;;5074535;28;20060;-63
2021/11/10 02:00:36;;;;;;;23.77;8.57;;;22.30;92.60;;;;;;5073869;28;20104;-63
2021/11/10 02:03:04;;;;;;;24.98;8.32;;;22.30;92.80;;;;;;5074337;28;20064;-64
2021/11/10 02:05:31;;;;;;;22.10;7.90;;;22.30;92.50;;;;;;5074239;28;20024;-62
2021/11/10 02:07:59;;;;;;;16.90;7.53;;;22.30;92.70;;;;;;5073891;28;20032;-62
2021/11/10 02:10:28;;;;;;;27.23;7.60;;;22.30;92.60;;;;;;5074647;28;20032;-67
2021/11/10 02:12:57;;;;;;;27.20;7.55;;;22.20;92.90;;;;;;5075216;28;20028;-64
2021/11/10 02:15:25;;;;;;;23.13;8.10;;;22.20;92.60;;;;;;5073077;28;20055;-63
2021/11/10 02:17:58;;;;;;;23.90;8.82;;;22.20;92.80;;;;;;5074823;28;20036;-63
2021/11/10 02:20:32;;;;;;;21.67;8.05;;;22.20;92.70;;;;;;5074323;28;20024;-64
2021/11/10 02:23:00;;;;;;;19.58;7.95;;;22.20;93.10;;;;;;5071684;28;20024;-63
2021/11/10 02:25:28;;;;;;;19.80;8.07;;;22.20;92.80;;;;;;5074183;28;20108;-62
2021/11/10 02:27:57;;;;;;;19.13;8.10;;;22.20;92.60;;;;;;5074254;28;20048;-64
2021/11/10 02:30:25;;;;;;;16.13;7.10;;;22.20;92.80;;;;;;5073050;28;20421;-65
2021/11/10 02:32:58;;;;;;;24.65;6.95;;;22.20;92.70;;;;;;5073756;28;20100;-61
2021/11/10 02:35:28;;;;;;;16.95;6.95;;;22.10;92.70;;;;;;5074072;28;20027;-65
2021/11/10 02:38:05;;;;;;;19.88;8.10;;;22.10;92.70;;;;;;5072358;28;20068;-68
2021/11/10 02:40:33;;;;;;;25.55;8.30;;;22.10;92.90;;;;;;5068930;28;20028;-56
2021/11/10 02:43:02;;;;;;;17.27;8.48;;;22.10;92.90;;;;;;5071409;28;20514;-58
2021/11/10 02:45:29;;;;;;;21.90;7.88;;;22.10;92.80;;;;;;5070360;28;20039;-65
2021/11/10 02:48:01;;;;;;;31.30;8.88;;;22.10;92.70;;;;;;5069003;28;20039;-64
2021/11/10 02:50:32;;;;;;;24.70;8.75;;;22.20;92.60;;;;;;5068734;28;20066;-59
2021/11/10 02:53:05;;;;;;;22.50;8.98;;;22.20;92.70;;;;;;5068390;28;20632;-49
2021/11/10 02:55:33;;;;;;;18.25;8.35;;;22.20;92.70;;;;;;5070903;28;20479;-61
2021/11/10 02:58:02;;;;;;;13.30;7.22;;;22.20;92.80;;;;;;5070993;28;20119;-57
2021/11/10 03:00:30;;;;;;;13.55;6.78;;;22.20;92.60;;;;;;5068482;28;20116;-59
2021/11/10 03:02:59;;;;;;;24.50;9.25;;;22.20;92.60;;;;;;5070261;28;20094;-62
2021/11/10 03:05:27;;;;;;;19.48;8.80;;;22.20;92.70;;;;;;5070565;28;20020;-54
2021/11/10 03:07:55;;;;;;;23.20;8.13;;;22.20;93.20;;;;;;5070946;28;20409;-59
2021/11/10 03:10:24;;;;;;;23.15;7.38;;;22.20;92.80;;;;;;5065969;28;20031;-57
2021/11/10 03:12:51;;;;;;;15.35;8.32;;;22.20;92.70;;;;;;5070604;28;20060;-58
2021/11/10 03:15:19;;;;;;;22.35;7.72;;;22.20;92.70;;;;;;5067033;28;20471;-56
2021/11/10 03:17:46;;;;;;;14.02;8.48;;;22.20;92.60;;;;;;5069190;28;20068;-55
2021/11/10 03:20:27;;;;;;;18.20;7.93;;;22.20;92.70;;;;;;5066648;28;20028;-65
2021/11/10 03:23:02;;;;;;;18.05;8.35;;;22.30;92.90;;;;;;5068636;28;20432;-61
2021/11/10 03:25:29;;;;;;;18.15;8.63;;;22.30;92.70;;;;;;5053401;28;20059;-60
2021/11/10 03:28:03;;;;;;;15.70;8.40;;;22.30;92.80;;;;;;5071231;28;20111;-65
2021/11/10 03:30:54;;;;;;;12.73;8.05;;;22.30;92.80;;;;;;5063414;28;20040;-63
2021/11/10 03:33:25;;;;;;;11.00;8.32;;;22.20;92.80;;;;;;5059487;28;20033;-57
2021/11/10 03:35:53;;;;;;;20.52;7.70;;;22.20;92.70;;;;;;5071336;28;20499;-53
2021/11/10 03:38:21;;;;;;;16.83;8.18;;;22.20;92.80;;;;;;5073168;28;20048;-52
2021/11/10 03:40:48;;;;;;;15.55;7.90;;;22.20;92.80;;;;;;5072374;28;20048;-56
2021/11/10 03:43:22;;;;;;;12.32;7.00;;;22.20;92.90;;;;;;5073009;28;20143;-54
2021/11/10 03:45:51;;;;;;;11.30;7.57;;;22.20;92.80;;;;;;5073417;28;20442;-52
2021/11/10 03:48:33;;;;;;;18.00;8.23;;;22.20;92.80;;;;;;5072699;28;20501;-59
2021/11/10 03:51:01;;;;;;;16.85;7.57;;;22.20;92.80;;;;;;5072481;28;20021;-61
2021/11/10 03:53:28;;;;;;;18.58;8.60;;;22.10;92.80;;;;;;5072470;28;20032;-58
2021/11/10 03:55:56;;;;;;;13.85;7.25;;;22.10;92.80;;;;;;5072610;28;20139;-57
2021/11/10 03:58:23;;;;;;;14.57;8.00;;;22.10;92.90;;;;;;5072673;28;20035;-56
2021/11/10 04:00:51;;;;;;;16.80;7.95;;;22.10;93.00;;;;;;5072251;28;20502;-53
2021/11/10 04:03:19;;;;;;;12.80;7.45;;;22.10;93.00;;;;;;5071319;28;20025;-52
2021/11/10 04:05:46;;;;;;;10.93;6.82;;;22.10;93.00;;;;;;5072268;28;20104;-56
2021/11/10 04:08:14;;;;;;;15.07;7.78;;;22.10;93.00;;;;;;5054832;28;20111;-58
2021/11/10 04:10:51;;;;;;;10.30;7.10;;;22.10;93.10;;;;;;5070709;28;20079;-58
2021/11/10 04:13:31;;;;;;;12.02;6.95;;;22.10;93.10;;;;;;5072680;28;20111;-61
2021/11/10 04:15:58;;;;;;;12.95;8.05;;;22.00;93.10;;;;;;5072493;28;20040;-57
2021/11/10 04:18:32;;;;;;;14.70;8.15;;;22.00;93.10;;;;;;5072029;28;20025;-56
2021/11/10 04:21:05;;;;;;;17.60;8.18;;;22.00;93.20;;;;;;5071078;28;20079;-57
2021/11/10 04:23:42;;;;;;;16.35;8.63;;;22.00;93.20;;;;;;5055111;28;20060;-58
2021/11/10 04:26:16;;;;;;;16.55;8.60;;;22.00;93.30;;;;;;5072960;28;20063;-60
2021/11/10 04:28:46;;;;;;;15.00;8.18;;;22.00;93.30;;;;;;5072716;28;20044;-57
2021/11/10 04:31:23;;;;;;;10.80;7.60;;;22.00;93.20;;;;;;5072870;28;20032;-56
2021/11/10 04:33:53;;;;;;;14.30;7.45;;;22.00;93.10;;;;;;5071475;28;20102;-54
2021/11/10 04:36:41;;;;;;;12.07;7.88;;;22.00;93.10;;;;;;5072854;28;20044;-54
2021/11/10 04:39:09;;;;;;;12.13;8.82;;;22.00;93.00;;;;;;5043511;28;20028;-55
2021/11/10 04:41:42;;;;;;;18.45;14.00;;;22.00;93.00;;;;;;5072441;28;20031;-59
2021/11/10 04:44:10;;;;;;;19.08;11.98;;;22.00;93.00;;;;;;5072809;28;20033;-61
2021/11/10 04:46:53;;;;;;;14.82;11.32;;;22.00;93.00;;;;;;5072555;28;20379;-60
2021/11/10 04:49:20;;;;;;;15.73;10.60;;;22.00;93.00;;;;;;5067745;28;20035;-64
2021/11/10 04:51:48;;;;;;;16.17;11.48;;;22.00;93.00;;;;;;5071569;28;20029;-52
2021/11/10 04:54:19;;;;;;;19.50;13.23;;;22.00;93.00;;;;;;5071923;28;20067;-58
2021/11/10 04:56:47;;;;;;;17.88;13.75;;;22.10;93.10;;;;;;5070740;28;20428;-58
2021/11/10 04:59:14;;;;;;;19.33;14.35;;;22.00;93.20;;;;;;5071778;28;20394;-53
2021/11/10 05:01:51;;;;;;;21.17;13.23;;;22.10;93.40;;;;;;5072704;28;20039;-59
2021/11/10 05:04:21;;;;;;;17.75;12.57;;;22.10;93.40;;;;;;5072886;28;20983;-55
2021/11/10 05:06:49;;;;;;;15.05;10.90;;;22.10;93.70;;;;;;5075363;28;20414;-61
2021/11/10 05:09:16;;;;;;;15.98;12.48;;;22.10;94.80;;;;;;5074576;28;20033;-54
2021/11/10 05:11:43;;;;;;;17.42;11.05;;;22.10;95.40;;;;;;5075627;28;20025;-57
2021/11/10 05:14:14;;;;;;;15.52;11.30;;;21.80;96.60;;;;;;5074242;28;20025;-59
2021/11/10 05:16:42;;;;;;;19.20;11.98;;;21.70;96.70;;;;;;5075024;28;20040;-59
2021/11/10 05:19:10;;;;;;;18.30;12.40;;;21.80;94.80;;;;;;5075104;28;20016;-57
2021/11/10 05:21:37;;;;;;;18.75;13.30;;;21.90;94.70;;;;;;5075717;28;20036;-57
2021/11/10 05:24:05;;;;;;;18.05;12.60;;;22.00;94.00;;;;;;5073736;28;20111;-61
2021/11/10 05:26:33;;;;;;;14.80;11.32;;;22.00;94.60;;;;;;5075646;28;20379;-56
2021/11/10 05:29:02;;;;;;;13.05;10.65;;;22.00;94.40;;;;;;5075421;28;20438;-56
2021/11/10 05:31:29;;;;;;;15.07;10.32;;;22.10;95.90;;;;;;5075176;28;20040;-59
2021/11/10 05:33:56;;;;;;;18.88;11.73;;;22.10;95.40;;;;;;5074468;28;20054;-59
2021/11/10 05:36:34;;;;;;;18.10;11.98;;;22.00;95.00;;;;;;5074708;28;20141;-61
2021/11/10 05:39:01;;;;;;;18.63;12.32;;;22.00;96.60;;;;;;5074913;28;20032;-54
2021/11/10 05:41:29;;;;;;;14.70;11.50;;;21.80;97.90;;;;;;5074605;28;20024;-61
2021/11/10 05:43:56;;;;;;;13.25;11.10;;;21.60;97.90;;;;;;5073720;28;20035;-60
2021/11/10 05:46:23;;;;;;;16.45;11.23;;;21.30;98.30;;;;;;5068556;28;20465;-64
2021/11/10 05:48:51;;;;;;;17.92;12.55;;;21.20;98.60;;;;;;5071535;28;20027;-56
2021/11/10 05:51:18;;;;;;;15.13;10.75;;;21.30;98.80;;;;;;5071572;28;20020;-62
2021/11/10 05:53:46;;;;;;;15.38;11.88;;;21.30;98.00;;;;;;5072526;28;20021;-61
2021/11/10 05:56:21;;;;;;;14.13;9.93;;;21.40;97.50;;;;;;5074532;28;20061;-59
2021/11/10 05:58:51;;;;;;;12.43;9.52;;;21.60;96.50;;;;;;5074367;28;20023;-58
2021/11/10 06:01:18;;;;;;;11.55;9.45;;;21.70;96.40;;;;;;5074616;28;20048;-57
2021/11/10 06:03:49;;;;;;;13.10;9.85;;;21.80;96.10;;;;;;5074247;28;20379;-59
2021/11/10 06:06:16;;;;;;;16.77;9.27;;;21.90;96.10;;;;;;5074255;28;20446;-55
2021/11/10 06:08:44;;;;;;;17.05;9.48;;;22.00;96.00;;;;;;5073519;28;20093;-55
2021/11/10 06:11:12;;;;;;;12.15;9.02;;;22.10;96.00;;;;;;5073742;28;20059;-55
2021/11/10 06:13:40;;;;;;;13.35;7.82;;;22.20;96.00;;;;;;5073980;28;20024;-62
2021/11/10 06:16:09;;;;;;;14.75;8.07;;;22.20;95.80;;;;;;5074091;28;20028;-59
2021/11/10 06:18:37;;;;;;;12.60;8.05;;;22.20;96.00;;;;;;5074289;28;20099;-60
2021/11/10 06:21:06;;;;;;;12.43;8.75;;;22.20;95.90;;;;;;5073205;28;20033;-57
2021/11/10 06:23:33;;;;;;;17.65;8.25;;;22.30;96.00;;;;;;5073399;28;20421;-59
2021/11/10 06:26:01;;;;;;;11.63;8.20;;;22.30;96.10;;;;;;5073965;28;20108;-62
2021/11/10 06:28:28;;;;;;;9.32;6.90;;;22.40;96.10;;;;;;5073470;28;20025;-62
2021/11/10 06:30:56;;;;;;;11.82;7.57;;;22.40;96.20;;;;;;5072364;28;20439;-59
2021/11/10 06:33:23;;;;;;;14.57;7.78;;;22.40;96.20;;;;;;5072493;28;20024;-62
2021/11/10 06:35:50;;;;;;;21.92;8.02;;;22.40;96.10;;;;;;5073217;28;20427;-61
2021/11/10 06:38:18;;;;;;;13.20;7.90;;;22.40;96.10;;;;;;5072377;28;20037;-61
2021/11/10 06:40:45;;;;;;;16.15;8.15;;;22.40;96.30;;;;;;5074356;28;20016;-63
2021/11/10 06:43:13;;;;;;;22.52;8.63;;;22.40;96.10;;;;;;5071010;28;20184;-66
2021/11/10 06:45:40;;;;;;;18.50;7.85;;;22.40;96.20;;;;;;5073200;28;20395;-60
2021/11/10 06:48:08;;;;;;;16.25;7.55;;;22.50;96.40;;;;;;5073235;28;20024;-56
2021/11/10 06:50:35;;;;;;;14.88;7.32;;;22.50;96.50;;;;;;5073796;28;20108;-62
2021/11/10 06:53:03;;;;;;;15.98;6.00;;;22.50;96.50;;;;;;5071918;28;20028;-57
2021/11/10 06:55:30;;;;;;;14.13;7.22;;;22.50;96.40;;;;;;5073049;28;20016;-58
2021/11/10 06:58:04;;;;;;;18.65;6.63;;;22.60;96.50;;;;;;5073861;28;20048;-62
2021/11/10 07:00:32;;;;;;;15.23;6.80;;;22.60;96.50;;;;;;5074075;28;20028;-62
2021/11/10 07:02:59;;;;;;;17.45;6.25;;;22.60;96.50;;;;;;5072906;28;20063;-58
2021/11/10 07:05:27;;;;;;;30.20;7.43;;;22.60;96.70;;;;;;5073420;28;20410;-58
2021/11/10 07:07:55;;;;;;;14.52;6.55;;;22.70;96.80;;;;;;5073781;28;20095;-59
2021/11/10 07:10:22;;;;;;;15.15;6.45;;;22.70;96.50;;;;;;5072436;28;20037;-59
2021/11/10 07:12:50;;;;;;;22.77;7.30;;;22.70;96.50;;;;;;5073374;28;20379;-59
2021/11/10 07:15:17;;;;;;;16.00;6.20;;;22.60;96.50;;;;;;5072368;28;20034;-58
2021/11/10 07:17:45;;;;;;;14.07;6.50;;;22.60;96.50;;;;;;5066562;28;20036;-58
2021/11/10 07:20:13;;;;;;;27.08;16.85;;;22.60;96.40;;;;;;5067594;28;20029;-60
2021/11/10 07:22:40;;;;;;;14.90;9.23;;;22.60;96.20;;;;;;5070355;28;20028;-60
2021/11/10 07:25:08;;;;;;;18.30;9.10;;;22.50;96.30;;;;;;5072484;28;20497;-59
2021/11/10 07:27:36;;;;;;;15.63;8.45;;;22.50;96.40;;;;;;5072606;28;20032;-55
2021/11/10 07:30:06;;;;;;;15.65;7.93;;;22.40;96.30;;;;;;5073138;28;20021;-56
2021/11/10 07:32:35;;;;;;;15.05;8.70;;;22.40;96.50;;;;;;5072841;28;20077;-57
2021/11/10 07:35:07;;;;;;;12.38;7.55;;;22.40;96.50;;;;;;5073212;28;20068;-58
2021/11/10 07:37:35;;;;;;;11.48;6.80;;;22.40;96.70;;;;;;5072758;28;20085;-58
2021/11/10 07:40:04;;;;;;;12.20;7.72;;;22.40;96.70;;;;;;5073179;28;20467;-59
2021/11/10 07:42:33;;;;;;;10.95;6.50;;;22.40;96.90;;;;;;5072668;28;20028;-57
2021/11/10 07:45:10;;;;;;;12.25;7.22;;;22.40;96.90;;;;;;5072814;28;20028;-60
2021/11/10 07:47:41;;;;;;;10.50;6.70;;;22.40;97.20;;;;;;5072616;28;20107;-58
2021/11/10 07:50:14;;;;;;;12.45;6.72;;;22.50;97.30;;;;;;5072178;28;20024;-55
2021/11/10 07:52:42;;;;;;;12.85;7.00;;;22.40;97.40;;;;;;5073155;28;20053;-64
2021/11/10 07:55:10;;;;;;;12.85;7.25;;;22.50;97.70;;;;;;5073019;28;20024;-58
2021/11/10 07:57:38;;;;;;;15.10;7.15;;;22.50;97.70;;;;;;5072781;28;20131;-57
2021/11/10 08:00:09;;;;;;;11.18;6.07;;;22.50;97.70;;;;;;5073108;28;20479;-58
2021/11/10 08:02:37;;;;;;;14.07;6.40;;;22.50;97.80;;;;;;5072856;28;20056;-71
2021/11/10 08:05:05;;;;;;;10.52;5.55;;;22.50;98.00;;;;;;5072873;28;20108;-70
2021/11/10 08:07:32;;;;;;;9.50;6.10;;;22.60;98.10;;;;;;5072466;28;20482;-71
2021/11/10 08:10:00;;;;;;;16.70;6.10;;;22.60;98.30;;;;;;5072695;28;20043;-71
2021/11/10 08:12:29;;;;;;;11.43;5.63;;;22.70;98.00;;;;;;5073076;28;20063;-70
2021/11/10 08:14:57;;;;;;;10.20;5.32;;;22.70;97.80;;;;;;5072978;28;20375;-69
2021/11/10 08:17:24;;;;;;;16.45;5.53;;;22.60;97.50;;;;;;5072443;28;20033;-70
2021/11/10 08:19:52;;;;;;;19.25;6.43;;;22.60;97.40;;;;;;5071789;28;20020;-71
2021/11/10 08:22:23;;;;;;;19.27;6.20;;;22.60;97.50;;;;;;5073051;28;20074;-71
2021/11/10 08:24:55;;;;;;;13.32;5.95;;;22.60;97.70;;;;;;5071256;28;20031;-67
2021/11/10 08:27:23;;;;;;;15.40;5.88;;;22.70;97.70;;;;;;5071047;28;20111;-67
2021/11/10 08:29:50;;;;;;;14.90;6.72;;;22.70;97.70;;;;;;5072805;28;20103;-68
2021/11/10 08:32:18;;;;;;;19.77;5.78;;;22.70;97.80;;;;;;5072723;28;20093;-68
2021/11/10 08:34:46;;;;;;;15.52;5.65;;;22.70;97.80;;;;;;5071522;28;20421;-66
2021/11/10 08:37:16;;;;;;;9.88;4.95;;;22.70;97.80;;;;;;5070340;28;20036;-69
2021/11/10 08:39:44;;;;;;;24.15;5.20;;;22.70;97.80;;;;;;5072799;28;20017;-67
2021/11/10 08:42:12;;;;;;;8.68;4.45;;;22.70;97.70;;;;;;5071958;28;20048;-70
2021/11/10 08:44:44;;;;;;;8.80;4.43;;;22.70;97.70;;;;;;5072637;28;20482;-66
2021/11/10 08:47:16;;;;;;;11.00;5.03;;;22.70;97.70;;;;;;5071896;28;20798;-72
2021/11/10 08:49:43;;;;;;;12.63;4.77;;;22.70;97.60;;;;;;5072273;28;20027;-70
2021/11/10 08:52:11;;;;;;;8.07;5.03;;;22.70;97.50;;;;;;5071846;28;20031;-67
2021/11/10 08:54:38;;;;;;;8.73;4.55;;;22.80;97.60;;;;;;5072237;28;20028;-66
2021/11/10 08:57:07;;;;;;;8.23;4.63;;;22.80;97.50;;;;;;5071665;28;20045;-67
2021/11/10 08:59:35;;;;;;;11.52;4.35;;;22.80;97.50;;;;;;5072282;28;20532;-69
2021/11/10 09:02:02;;;;;;;10.27;4.35;;;22.80;97.60;;;;;;5072060;28;20024;-67
2021/11/10 09:04:29;;;;;;;19.13;6.32;;;22.80;97.70;;;;;;5054222;28;20464;-65
2021/11/10 09:06:57;;;;;;;16.23;5.22;;;22.80;98.30;;;;;;5071840;28;20032;-67
2021/11/10 09:09:24;;;;;;;15.40;5.32;;;22.80;98.20;;;;;;5072318;28;20086;-57
2021/11/10 09:11:52;;;;;;;11.65;5.50;;;22.80;98.10;;;;;;5071601;28;20048;-54
2021/11/10 09:14:20;;;;;;;14.07;5.72;;;22.70;97.60;;;;;;5072203;28;20047;-57
2021/11/10 09:16:49;;;;;;;10.27;5.47;;;22.60;97.60;;;;;;5072130;28;20455;-49
2021/11/10 09:19:16;;;;;;;10.00;5.20;;;22.60;97.70;;;;;;5072491;28;20028;-50
2021/11/10 09:21:44;;;;;;;11.55;5.47;;;22.60;97.90;;;;;;5072434;28;20028;-57
2021/11/10 09:24:12;;;;;;;9.82;4.88;;;22.50;98.00;;;;;;5071239;28;20021;-55
2021/11/10 09:26:40;;;;;;;11.13;5.22;;;22.50;97.70;;;;;;5072609;28;20028;-54
2021/11/10 09:29:07;;;;;;;20.70;11.15;;;22.50;97.50;;;;;;5061170;28;20037;-55
2021/11/10 09:31:36;;;;;;;28.45;15.13;;;22.50;97.60;;;;;;5065409;28;20514;-50
2021/11/10 09:34:08;;;;;;;43.10;23.50;;;22.50;97.50;;;;;;5069140;28;20024;-51
2021/11/10 09:36:39;;;;;;;;;;;22.50;97.40;;;;;;5067362;28;20430;-53
2021/11/10 09:39:07;;;;;;;111.50;63.60;;;22.40;97.20;;;;;;5063829;28;19904;-58
2021/11/10 09:41:42;;;;;;;102.72;59.22;;;22.40;97.00;;;;;;5069613;28;20487;-58
2021/11/10 09:44:09;;;;;;;92.60;54.47;;;22.40;97.00;;;;;;5067796;28;20075;-49
2021/11/10 09:46:38;;;;;;;88.45;55.45;;;22.40;97.00;;;;;;5066094;28;20599;-58
2021/11/10 09:49:08;;;;;;;84.57;52.50;;;22.40;96.90;;;;;;5067674;28;20430;-55
2021/11/10 09:51:36;;;;;;;98.88;58.88;;;22.40;96.90;;;;;;5073305;28;20019;-54
2021/11/10 09:54:05;;;;;;;89.82;60.80;;;22.40;96.80;;;;;;5070308;28;20085;-57
2021/11/10 09:56:35;;;;;;;99.93;60.13;;;22.30;96.70;;;;;;5066677;28;20040;-56
2021/11/10 09:59:03;;;;;;;109.47;64.38;;;22.30;96.70;;;;;;5067736;28;20035;-51
2021/11/10 10:01:34;;;;;;;104.68;65.70;;;22.30;96.60;;;;;;5069808;28;20115;-56
2021/11/10 10:04:02;;;;;;;105.35;66.47;;;22.20;96.60;;;;;;5073183;28;20501;-52
2021/11/10 10:06:31;;;;;;;110.00;65.15;;;22.20;96.60;;;;;;5072599;28;20036;-56
2021/11/10 10:09:00;;;;;;;102.03;62.25;;;22.20;96.60;;;;;;5068852;28;20044;-55
2021/11/10 10:11:32;;;;;;;96.57;61.90;;;22.20;96.50;;;;;;5072169;28;20482;-60
2021/11/10 10:14:00;;;;;;;99.15;61.30;;;22.20;96.50;;;;;;5072984;28;20044;-51
2021/11/10 10:16:30;;;;;;;95.13;59.00;;;22.10;96.50;;;;;;5072488;28;20102;-60
2021/11/10 10:19:12;;;;;;;95.72;57.95;;;22.10;96.50;;;;;;5068787;28;20028;-53
2021/11/10 10:21:41;;;;;;;94.57;55.83;;;22.10;96.40;;;;;;5072479;28;20103;-59
2021/11/10 10:24:11;;;;;;;90.60;55.22;;;22.10;96.40;;;;;;5071619;28;20093;-58
2021/11/10 10:26:39;;;;;;;84.45;54.25;;;22.10;96.50;;;;;;5072724;28;20031;-57
2021/11/10 10:29:09;;;;;;;89.43;55.25;;;22.00;96.40;;;;;;5068548;28;20024;-61
2021/11/10 10:31:38;;;;;;;92.82;55.33;;;22.00;96.50;;;;;;5072123;28;20025;-52
2021/11/10 10:34:11;;;;;;;81.03;51.78;;;22.00;96.50;;;;;;5072448;28;20029;-59
2021/11/10 10:36:42;;;;;;;89.13;54.33;;;22.00;96.40;;;;;;5072422;28;20064;-58
2021/11/10 10:39:20;;;;;;;87.18;54.65;;;22.00;96.40;;;;;;5068825;28;20039;-52
2021/11/10 10:41:56;;;;;;;83.40;48.20;;;22.00;96.40;;;;;;5068762;28;20514;-47
2021/11/10 10:44:27;;;;;;;80.22;49.60;;;21.90;96.30;;;;;;5071152;28;20032;-49
2021/11/10 10:47:07;;;;;;;77.30;49.67;;;21.90;96.40;;;;;;5072013;28;20383;-46
2021/11/10 10:49:44;;;;;;;75.25;47.92;;;21.90;96.40;;;;;;5068040;28;20020;-58
2021/11/10 10:52:18;;;;;;;72.78;46.03;;;21.90;96.30;;;;;;5070763;28;20031;-48
2021/11/10 10:54:51;;;;;;;77.90;47.28;;;21.90;96.30;;;;;;5068310;28;20024;-54
2021/11/10 10:57:43;;;;;;;80.38;47.05;;;21.90;96.30;;;;;;5071571;28;20487;-55
2021/11/10 11:00:14;;;;;;;63.95;42.15;;;21.90;96.20;;;;;;5068297;28;20039;-51
2021/11/10 11:02:41;;;;;;;67.93;42.47;;;21.90;96.20;;;;;;5070331;28;20031;-51
2021/11/10 11:05:08;;;;;;;66.35;41.47;;;21.90;96.20;;;;;;5070676;28;20017;-51
2021/11/10 11:07:36;;;;;;;62.83;41.00;;;21.90;96.20;;;;;;5070321;28;20024;-50
2021/11/10 11:10:14;;;;;;;70.88;43.60;;;21.90;96.20;;;;;;5068206;28;20504;-55
2021/11/10 11:12:52;;;;;;;62.67;41.10;;;21.90;96.20;;;;;;5071648;28;20035;-53
2021/11/10 11:15:33;;;;;;;65.20;39.22;;;21.80;96.10;;;;;;5071397;28;20036;-57
2021/11/10 11:18:01;;;;;;;64.45;40.53;;;21.80;96.10;;;;;;5074101;28;20040;-50
2021/11/10 11:20:34;;;;;;;64.43;41.75;;;21.80;96.20;;;;;;5074114;28;20154;-56
2021/11/10 11:23:03;;;;;;;62.08;39.88;;;21.80;96.40;;;;;;5073608;28;20097;-57
2021/11/10 11:25:36;;;;;;;69.78;41.67;;;21.80;96.10;;;;;;5073445;28;20480;-56
2021/11/10 11:28:08;;;;;;;65.93;40.17;;;21.80;96.10;;;;;;5073796;28;20490;-58
2021/11/10 11:30:42;;;;;;;63.20;39.17;;;21.80;96.10;;;;;;5073393;28;20033;-53
2021/11/10 11:33:12;;;;;;;60.97;37.10;;;21.80;96.10;;;;;;5066420;28;20093;-50
2021/11/10 11:35:44;;;;;;;51.17;34.72;;;21.80;96.10;;;;;;5069748;28;20024;-52
2021/11/10 11:38:15;;;;;;;;;;;21.80;96.00;;;;;;5071326;28;20475;-59
2021/11/10 11:40:46;;;;;;;51.10;32.70;;;21.80;96.00;;;;;;5070121;28;19926;-54
2021/11/10 11:43:16;;;;;;;47.70;30.85;;;21.80;96.00;;;;;;5070612;28;20024;-52
2021/11/10 11:45:46;;;;;;;48.55;30.70;;;21.80;96.00;;;;;;5068614;28;20162;-59
2021/11/10 11:48:18;;;;;;;51.10;31.67;;;21.80;95.90;;;;;;5069939;28;20385;-52
2021/11/10 11:50:48;;;;;;;49.90;31.33;;;21.80;95.90;;;;;;5070902;28;20020;-52
2021/11/10 11:53:19;;;;;;;52.70;31.27;;;21.80;95.90;;;;;;5070205;28;20025;-55
2021/11/10 11:55:59;;;;;;;48.90;31.73;;;21.80;95.90;;;;;;5066855;28;20043;-55
2021/11/10 11:58:31;;;;;;;50.38;30.05;;;21.80;95.90;;;;;;5067515;28;20048;-54
2021/11/10 12:01:04;;;;;;;44.42;29.15;;;21.80;95.90;;;;;;5069960;28;20021;-51
2021/11/10 12:03:35;;;;;;;52.15;31.67;;;21.80;95.90;;;;;;5067551;28;20445;-53
2021/11/10 12:06:03;;;;;;;45.00;28.17;;;21.80;95.80;;;;;;5066924;28;20111;-56
2021/11/10 12:08:40;;;;;;;44.95;29.27;;;21.80;95.80;;;;;;5070422;28;20425;-56
2021/11/10 12:11:41;;;;;;;44.35;28.60;;;21.80;95.90;;;;;;5072760;28;20441;-61
2021/11/10 12:14:13;;;;;;;42.35;27.73;;;21.70;95.80;;;;;;5072547;28;20017;-61
2021/11/10 12:16:48;;;;;;;50.72;30.17;;;21.70;95.80;;;;;;5073205;28;20461;-61
2021/11/10 12:19:23;;;;;;;43.30;28.23;;;21.70;95.80;;;;;;5072778;28;20029;-60
2021/11/10 12:22:18;;;;;;;43.45;27.23;;;21.70;95.80;;;;;;5073479;28;20029;-60
2021/11/10 12:24:52;;;;;;;42.53;28.65;;;21.70;95.80;;;;;;5073161;28;20040;-60
2021/11/10 12:27:37;;;;;;;43.40;27.58;;;21.60;95.80;;;;;;5073087;28;20079;-59
2021/11/10 12:30:13;;;;;;;46.35;27.63;;;21.60;95.80;;;;;;5072921;28;20036;-59
2021/11/10 12:32:42;;;;;;;44.40;26.27;;;21.60;95.70;;;;;;5072568;28;20067;-60
2021/11/10 12:35:39;;;;;;;37.70;24.58;;;21.60;95.70;;;;;;5072212;28;20036;-56
2021/11/10 12:38:25;;;;;;;39.65;25.52;;;21.60;95.70;;;;;;5059471;28;20372;-53
2021/11/10 12:41:02;;;;;;;41.95;25.17;;;21.60;95.70;;;;;;5072629;28;20024;-58
2021/11/10 12:43:39;;;;;;;39.42;25.80;;;21.60;95.70;;;;;;5072563;28;20077;-61
2021/11/10 12:46:21;;;;;;;40.17;25.75;;;21.60;95.70;;;;;;5072520;28;20031;-60